Minnesota Lake, MN (56068)

1:26 AM CDT on August 31, 2014 (GMT -0500)
MN Lake | Change Station
CLOSE
Current Station
Personal Weather Station
Location: Minnesota Lake, MN
Elevation: 1040 ft
Nearby Weather Stations

Elev 1040 ft 43.84 °N, 93.83 °W | Updated 40 seconds ago

Partly Cloudy
Partly Cloudy
61.3 °F
Feels Like 61.3 °F
N
1.0
Wind Variable Wind from SSE
Gusts 1.0 mph

Today
High -- | Low -- °F
--% Chance of Precip.
Yesterday
High -- | Low -- °F
Precip. -- in
6:37 AM 7:52 PM
Waxing Crescent, 28% visible
Pressure 29.90 in
Visibility 4.0 miles
Clouds Clear
Dew Point 60 °F
Humidity 97%
Rainfall 0.00 in
Snow Depth Not available.
UV 0 out of 12
Pollen 4.70 out of 12
Air Quality Not available.
Flu Activity Not available.
METAR KACQ 310614Z AUTO 11003KT 4SM BR CLR 15/13 A2990 RMK AO2

More Conditions Fewer Conditions

Pressure 29.90 in
Visibility 4.0 miles
Clouds Clear
Dew Point 60 °F
Humidity 97%
Rainfall 0.00 in
Snow Depth Not available.
UV 0 out of 12
Pollen 4.70 out of 12
Air Quality Not available.
Flu Activity Not available.
METAR KACQ 310614Z AUTO 11003KT 4SM BR CLR 15/13 A2990 RMK AO2

More Conditions Fewer Conditions

10-Day Weather Forecast

Almanac

Astronomy

Aug. 31, 2014 Rise Set
Actual Time 6:37 AM CDT 7:52 PM CDT
Civil Twilight 6:07 AM CDT 8:22 PM CDT
Nautical Twilight 5:32 AM CDT 8:57 PM CDT
Astronomical Twilight 4:54 AM CDT 9:35 PM CDT
Moon 12:37 PM CDT 10:55 PM CDT
Length of Visible Light 14h 14m
Length of Day
13h 15m
Tomorrow will be 2m 53s shorter.
Waxing Crescent, 28% of the Moon is Illuminated
Today
Waxing Crescent
Sep 2
First Quarter
Sep 8
Full
Sep 15
Last Quarter
Sep 24
New

Today's Extremes

State Highs State Lows

Community

WunderPhotos

Upload Photos

1,748,801 photos uploaded!

Nearby

Snow Depth

Station Depth Elevation
No new snow has been reported.

Earthquake Activity

City Distance Mag. Time & Date
No recent earthquake activity has been reported nearby.
Minimum magnitude displayed is 2.5.

Coastal Water Temperatures

Place Temperature
No Stations Reporting

Nearby Weather Stations